Time;durP1;ratioP1;P1;durP2;ratioP2;P2;SDS_P1;SDS_P2;PMS_P1;PMS_P2;Temp;Humidity;BMP_temperature;BMP_pressure;BME280_temperature;BME280_humidity;BME280_pressure;Samples;Min_cycle;Max_cycle;Signal;HPM_P1;HPM_P2
2022/06/07 00:01:37;;;;;;;6.60;6.00;;;13.20;99.90;;;;;;5031526;28;20918;-81
2022/06/07 00:04:04;;;;;;;7.25;6.55;;;13.00;99.90;;;;;;5031333;28;20381;-81
2022/06/07 00:06:30;;;;;;;7.70;6.95;;;12.90;99.90;;;;;;5013555;28;20768;-81
2022/06/07 00:08:56;;;;;;;6.85;6.22;;;12.90;99.90;;;;;;5030996;28;20386;-81
2022/06/07 00:11:22;;;;;;;7.50;6.80;;;12.90;99.90;;;;;;5030895;28;20380;-81
2022/06/07 00:13:48;;;;;;;7.25;6.57;;;12.90;99.90;;;;;;5030867;28;20390;-81
2022/06/07 00:16:16;;;;;;;7.35;6.65;;;12.90;99.90;;;;;;5031403;28;20456;-81
2022/06/07 00:18:42;;;;;;;7.95;7.25;;;12.80;99.90;;;;;;5031016;28;20492;-81
2022/06/07 00:21:08;;;;;;;7.22;6.50;;;12.80;99.90;;;;;;5013181;28;20939;-81
2022/06/07 00:23:34;;;;;;;7.53;6.75;;;12.80;99.90;;;;;;5030530;28;20887;-81
2022/06/07 00:26:00;;;;;;;7.82;6.82;;;12.70;99.90;;;;;;5031113;28;20409;-81
2022/06/07 00:28:27;;;;;;;7.05;6.43;;;12.70;99.90;;;;;;5030963;28;20469;-81
2022/06/07 00:30:54;;;;;;;7.55;6.85;;;12.70;99.90;;;;;;5030741;28;20373;-82
2022/06/07 00:33:22;;;;;;;7.15;6.45;;;12.70;99.90;;;;;;5030817;28;20428;-81
2022/06/07 00:35:48;;;;;;;7.85;7.15;;;12.70;99.90;;;;;;5031651;28;20383;-82
2022/06/07 00:38:14;;;;;;;7.45;6.75;;;12.70;99.90;;;;;;5012659;28;20524;-82
2022/06/07 00:40:42;;;;;;;7.70;6.90;;;12.70;99.90;;;;;;5030200;28;20401;-82
2022/06/07 00:43:09;;;;;;;8.02;7.22;;;12.60;99.90;;;;;;5012783;28;20404;-82
2022/06/07 00:45:36;;;;;;;7.85;7.07;;;12.60;99.90;;;;;;5011528;28;20389;-82
2022/06/07 00:48:02;;;;;;;8.10;7.40;;;12.60;99.90;;;;;;5030506;28;20404;-81
2022/06/07 00:50:38;;;;;;;8.50;7.70;;;12.60;99.90;;;;;;5012442;28;20439;-82
2022/06/07 00:53:04;;;;;;;8.07;7.05;;;12.60;99.90;;;;;;5029837;28;20739;-82
2022/06/07 00:55:30;;;;;;;8.10;7.40;;;12.50;99.90;;;;;;5030378;28;20394;-82
2022/06/07 00:57:56;;;;;;;8.10;7.38;;;12.60;99.90;;;;;;5030431;28;20951;-81
2022/06/07 01:00:23;;;;;;;8.10;7.40;;;12.50;99.90;;;;;;5030418;28;20468;-82
2022/06/07 01:02:50;;;;;;;7.90;7.20;;;12.50;99.90;;;;;;5030253;28;20381;-81
2022/06/07 01:05:16;;;;;;;10.60;7.77;;;12.50;99.90;;;;;;5030154;28;20373;-82
2022/06/07 01:10:44;;;;;;;7.70;7.00;;;12.40;99.90;;;;;;5029850;28;20984;-81
2022/06/07 01:13:12;;;;;;;8.05;7.30;;;12.40;99.90;;;;;;5012244;28;21016;-81
2022/06/07 01:15:38;;;;;;;7.80;7.10;;;12.40;99.90;;;;;;5030016;28;21094;-82
2022/06/07 01:18:04;;;;;;;7.80;7.10;;;12.50;99.90;;;;;;5029696;28;20430;-81
2022/06/07 01:20:31;;;;;;;7.70;7.00;;;12.40;99.90;;;;;;5029768;28;20376;-82
2022/06/07 01:22:56;;;;;;;8.02;7.32;;;12.40;99.90;;;;;;5012747;28;20689;-81
2022/06/07 01:25:23;;;;;;;7.47;6.70;;;12.40;99.90;;;;;;5029831;28;20396;-82
2022/06/07 01:27:49;;;;;;;8.00;7.18;;;12.40;99.90;;;;;;5012584;28;20402;-82
2022/06/07 01:30:14;;;;;;;7.47;6.87;;;12.40;99.90;;;;;;5029646;28;20373;-82
2022/06/07 01:32:40;;;;;;;8.20;7.27;;;12.30;99.90;;;;;;5029879;28;20504;-81
2022/06/07 01:35:07;;;;;;;7.10;6.50;;;12.30;99.90;;;;;;5012256;28;20382;-81
2022/06/07 01:37:33;;;;;;;8.05;7.25;;;12.30;99.90;;;;;;5029621;28;20388;-81
2022/06/07 01:42:43;;;;;;;7.47;6.85;;;12.20;99.90;;;;;;5029985;28;20505;-81
2022/06/07 01:45:09;;;;;;;8.15;7.45;;;12.10;99.90;;;;;;5029471;28;20812;-81
2022/06/07 01:47:35;;;;;;;8.10;7.40;;;12.20;99.90;;;;;;5029505;28;20409;-81
2022/06/07 01:50:02;;;;;;;7.88;7.18;;;12.20;99.90;;;;;;5011855;28;20382;-81
2022/06/07 01:52:32;;;;;;;7.63;6.93;;;12.20;99.90;;;;;;5029312;28;20852;-82
2022/06/07 01:54:58;;;;;;;7.60;6.88;;;12.10;99.90;;;;;;5029476;28;20376;-81
2022/06/07 01:57:24;;;;;;;7.90;7.20;;;12.00;99.90;;;;;;5028983;28;20377;-82
2022/06/07 01:59:52;;;;;;;8.48;7.65;;;12.00;99.90;;;;;;5029193;28;20378;-82
2022/06/07 02:02:18;;;;;;;7.82;7.10;;;12.00;99.90;;;;;;4995282;28;20382;-81
2022/06/07 02:04:44;;;;;;;8.45;7.50;;;11.90;99.90;;;;;;5029223;28;20378;-82
2022/06/07 02:07:12;;;;;;;8.30;7.50;;;11.90;99.90;;;;;;5029328;28;20402;-82
2022/06/07 02:09:38;;;;;;;8.65;7.65;;;11.90;99.90;;;;;;5011039;28;20382;-82
2022/06/07 02:12:04;;;;;;;8.13;7.43;;;11.90;99.90;;;;;;5028750;28;20393;-82
2022/06/07 02:14:31;;;;;;;10.07;7.75;;;11.90;99.90;;;;;;5028917;28;20381;-82
2022/06/07 02:16:57;;;;;;;9.50;8.00;;;11.80;99.90;;;;;;5028930;28;20468;-82
2022/06/07 02:19:23;;;;;;;8.77;7.97;;;11.80;99.90;;;;;;5028888;28;20427;-81
2022/06/07 02:21:49;;;;;;;8.80;7.90;;;11.90;99.90;;;;;;5011543;28;20790;-82
2022/06/07 02:24:16;;;;;;;8.47;7.63;;;11.80;99.90;;;;;;5029472;28;20370;-82
2022/06/07 02:26:48;;;;;;;9.27;8.37;;;11.80;99.90;;;;;;5011051;28;20421;-82
2022/06/07 02:29:29;;;;;;;8.10;7.30;;;11.70;99.90;;;;;;5011027;28;20381;-82
2022/06/07 02:32:01;;;;;;;8.00;7.30;;;11.70;99.90;;;;;;5028591;28;20424;-81
2022/06/07 02:34:27;;;;;;;8.07;7.38;;;11.80;99.90;;;;;;5028718;28;20420;-82
2022/06/07 02:36:57;;;;;;;7.60;6.90;;;11.80;99.90;;;;;;5028912;28;20409;-83
2022/06/07 02:39:24;;;;;;;7.35;6.75;;;11.70;99.90;;;;;;5028866;28;20380;-82
2022/06/07 02:41:50;;;;;;;8.32;7.50;;;11.70;99.90;;;;;;5011070;28;20403;-82
2022/06/07 02:44:16;;;;;;;7.90;7.13;;;11.70;99.90;;;;;;5029029;28;20373;-82
2022/06/07 02:46:42;;;;;;;7.50;6.85;;;11.70;99.90;;;;;;5028523;28;20408;-82
2022/06/07 02:49:08;;;;;;;7.60;6.90;;;11.90;99.90;;;;;;5028832;28;20794;-83
2022/06/07 02:51:34;;;;;;;7.13;6.47;;;11.90;99.90;;;;;;5028611;28;20381;-83
2022/06/07 02:54:00;;;;;;;7.55;6.80;;;11.90;99.90;;;;;;5028799;28;20716;-82
2022/06/07 02:56:25;;;;;;;7.47;6.77;;;11.90;99.90;;;;;;5028749;28;20409;-83
2022/06/07 02:58:51;;;;;;;7.25;6.65;;;11.90;99.90;;;;;;5028450;28;20874;-82
2022/06/07 03:01:17;;;;;;;7.47;6.78;;;11.90;99.90;;;;;;5028906;28;20405;-83
2022/06/07 03:03:42;;;;;;;8.13;7.33;;;11.90;99.90;;;;;;5028584;28;20897;-83
2022/06/07 03:06:08;;;;;;;7.97;7.27;;;12.00;99.90;;;;;;5028469;28;20470;-83
2022/06/07 03:08:34;;;;;;;7.55;6.85;;;12.00;99.90;;;;;;5012170;28;20427;-82
2022/06/07 03:11:00;;;;;;;7.88;7.07;;;12.10;99.90;;;;;;5014904;28;20405;-83
2022/06/07 03:13:26;;;;;;;8.50;7.57;;;12.10;99.90;;;;;;5032418;28;20376;-83
2022/06/07 03:15:52;;;;;;;8.07;6.90;;;12.10;99.90;;;;;;5014652;28;20385;-83
2022/06/07 03:18:18;;;;;;;8.07;7.17;;;12.10;99.90;;;;;;5032681;28;20485;-82
2022/06/07 03:20:46;;;;;;;7.18;6.47;;;12.10;99.90;;;;;;5014573;28;20408;-83
2022/06/07 03:23:12;;;;;;;7.40;6.70;;;12.10;99.90;;;;;;5032171;28;20875;-83
2022/06/07 03:25:38;;;;;;;8.23;7.43;;;12.10;99.90;;;;;;5032208;28;20397;-83
2022/06/07 03:28:04;;;;;;;7.97;7.28;;;12.10;99.90;;;;;;5032626;28;20405;-83
2022/06/07 03:30:30;;;;;;;7.43;6.72;;;12.10;99.90;;;;;;5032127;28;20369;-83
2022/06/07 03:32:57;;;;;;;7.43;6.70;;;12.10;99.90;;;;;;5032090;28;20377;-83
2022/06/07 03:35:22;;;;;;;8.10;6.90;;;12.10;99.90;;;;;;5014752;28;20624;-83
2022/06/07 03:37:48;;;;;;;7.00;6.40;;;12.10;99.90;;;;;;5032125;28;20480;-83
2022/06/07 03:40:42;;;;;;;7.72;6.88;;;12.10;99.90;;;;;;5014123;28;20385;-83
2022/06/07 03:43:00;;;;;;;7.20;6.50;;;12.10;99.90;;;;;;5031788;28;20409;-83
2022/06/07 03:45:26;;;;;;;6.65;6.05;;;12.10;99.90;;;;;;5031880;28;20385;-83
2022/06/07 03:47:51;;;;;;;6.93;6.20;;;12.20;99.90;;;;;;5031758;28;20408;-82
2022/06/07 03:50:17;;;;;;;7.10;6.40;;;12.20;99.90;;;;;;5014292;28;20496;-82
2022/06/07 03:52:43;;;;;;;7.10;6.40;;;12.20;99.90;;;;;;5031564;28;20386;-83
2022/06/07 03:55:08;;;;;;;6.63;6.03;;;12.30;99.90;;;;;;5013933;28;20894;-83
2022/06/07 03:57:34;;;;;;;7.13;6.53;;;12.30;99.90;;;;;;5031674;28;20385;-83
2022/06/07 03:59:59;;;;;;;7.28;6.57;;;12.40;99.90;;;;;;5031524;28;20797;-83
2022/06/07 04:02:26;;;;;;;7.20;6.60;;;12.50;99.90;;;;;;5031378;28;20480;-83
2022/06/07 04:04:51;;;;;;;7.95;7.20;;;12.60;99.90;;;;;;5014000;28;20807;-83
2022/06/07 04:10:01;;;;;;;6.57;6.05;;;12.80;99.90;;;;;;5031729;28;20755;-83
2022/06/07 04:12:27;;;;;;;7.47;6.60;;;12.90;99.90;;;;;;5030997;28;20390;-82
2022/06/07 04:14:52;;;;;;;7.03;6.40;;;13.10;99.90;;;;;;5013534;28;20400;-83
2022/06/07 04:17:18;;;;;;;7.27;6.27;;;13.30;99.90;;;;;;5013324;28;20863;-83
2022/06/07 04:19:44;;;;;;;6.68;6.07;;;13.50;99.90;;;;;;5031130;28;20369;-81
2022/06/07 04:22:11;;;;;;;6.88;6.22;;;13.70;99.90;;;;;;5013609;28;20381;-83
2022/06/07 04:24:37;;;;;;;6.78;6.07;;;13.80;99.90;;;;;;5031108;28;20388;-82
2022/06/07 04:27:03;;;;;;;6.13;5.63;;;14.00;99.90;;;;;;5012712;28;20421;-82
2022/06/07 04:29:30;;;;;;;6.43;5.93;;;14.00;99.90;;;;;;5013294;28;20393;-82
2022/06/07 04:31:56;;;;;;;6.68;6.07;;;14.10;99.90;;;;;;5031016;28;20516;-82
2022/06/07 04:34:22;;;;;;;6.22;5.63;;;14.30;99.90;;;;;;5031153;28;20413;-82
2022/06/07 04:36:48;;;;;;;5.63;5.07;;;14.50;99.90;;;;;;5030776;28;20409;-82
2022/06/07 04:39:13;;;;;;;5.67;5.00;;;14.60;99.90;;;;;;5013118;28;20771;-82
2022/06/07 04:41:40;;;;;;;7.50;5.53;;;14.80;99.90;;;;;;5030601;28;20397;-82
2022/06/07 04:44:06;;;;;;;5.43;4.60;;;15.10;99.90;;;;;;5031022;28;20727;-83
2022/06/07 04:46:32;;;;;;;4.65;3.95;;;15.50;99.90;;;;;;5012891;28;20416;-82
2022/06/07 04:48:57;;;;;;;4.53;4.13;;;15.80;99.90;;;;;;5012944;28;20374;-82
2022/06/07 04:51:27;;;;;;;7.78;4.15;;;16.20;99.90;;;;;;5030396;28;20406;-82
2022/06/07 04:53:54;;;;;;;7.85;4.20;;;16.40;99.90;;;;;;5012818;28;20823;-83
2022/06/07 04:56:31;;;;;;;5.07;3.42;;;16.50;99.90;;;;;;5030581;28;20396;-83
2022/06/07 04:58:59;;;;;;;5.07;3.65;;;17.00;99.90;;;;;;5012746;28;20378;-83
2022/06/07 05:01:36;;;;;;;4.25;3.47;;;17.50;99.90;;;;;;5030712;28;20377;-83
2022/06/07 05:04:03;;;;;;;4.53;3.30;;;;;;;;;;5030784;28;20410;-83
2022/06/07 05:06:33;;;;;;;4.30;3.40;;;18.60;99.90;;;;;;5030585;28;20433;-83
2022/06/07 05:09:02;;;;;;;4.68;3.53;;;18.90;99.90;;;;;;5012647;28;20389;-83
2022/06/07 05:11:29;;;;;;;4.22;3.40;;;19.10;99.90;;;;;;5029834;28;20878;-83
2022/06/07 05:13:57;;;;;;;3.92;3.10;;;19.30;99.90;;;;;;5030053;28;20432;-83
2022/06/07 05:16:23;;;;;;;4.80;3.13;;;19.40;99.90;;;;;;5012340;28;20898;-82
2022/06/07 05:18:50;;;;;;;3.93;3.10;;;19.60;99.90;;;;;;5012734;28;20399;-85
2022/06/07 05:21:16;;;;;;;5.18;3.25;;;19.90;99.90;;;;;;5030448;28;20385;-82
2022/06/07 05:23:43;;;;;;;6.65;3.13;;;20.00;99.90;;;;;;5030075;28;20381;-82
2022/06/07 05:26:16;;;;;;;3.78;2.70;;;20.00;99.90;;;;;;5037194;28;20404;-83
2022/06/07 05:28:43;;;;;;;6.30;2.80;;;20.00;99.90;;;;;;5049715;28;20861;-83
2022/06/07 05:31:10;;;;;;;4.65;2.60;;;20.00;99.90;;;;;;5031351;28;20376;-82
2022/06/07 05:33:36;;;;;;;3.53;2.70;;;20.00;99.90;;;;;;5031854;28;20395;-83
2022/06/07 05:36:04;;;;;;;3.88;2.80;;;20.20;99.90;;;;;;5031907;28;20392;-83
2022/06/07 05:38:30;;;;;;;4.30;2.60;;;20.20;99.90;;;;;;5049168;28;20426;-83
2022/06/07 05:40:56;;;;;;;4.00;2.75;;;20.00;99.90;;;;;;5049647;28;20378;-83
2022/06/07 05:43:22;;;;;;;4.67;2.40;;;19.70;99.90;;;;;;5049552;28;20384;-84
2022/06/07 05:45:50;;;;;;;3.30;2.33;;;19.60;99.90;;;;;;5049641;28;20383;-84
2022/06/07 05:48:16;;;;;;;4.40;2.55;;;19.50;99.90;;;;;;5049173;28;20469;-84
2022/06/07 05:50:50;;;;;;;5.07;2.30;;;19.60;99.90;;;;;;5031593;28;20479;-84
2022/06/07 05:53:17;;;;;;;7.15;2.35;;;19.60;99.90;;;;;;5031388;28;20416;-83
2022/06/07 05:55:43;;;;;;;5.10;2.40;;;19.50;99.90;;;;;;5049488;28;20433;-83
2022/06/07 05:58:09;;;;;;;6.07;2.20;;;19.60;99.90;;;;;;5049605;28;20392;-84
2022/06/07 06:00:36;;;;;;;4.75;2.25;;;19.80;99.90;;;;;;5049442;28;20372;-83
2022/06/07 06:03:02;;;;;;;3.45;2.00;;;20.00;99.90;;;;;;5049564;28;20402;-84
2022/06/07 06:05:28;;;;;;;3.25;2.05;;;20.20;99.90;;;;;;5049407;28;20388;-83
2022/06/07 06:10:37;;;;;;;2.70;1.80;;;20.20;99.90;;;;;;5049468;28;20379;-83
2022/06/07 06:13:03;;;;;;;3.30;1.67;;;20.30;99.90;;;;;;5031150;28;20762;-83
2022/06/07 06:15:28;;;;;;;2.33;1.50;;;20.40;99.90;;;;;;5049082;28;20909;-84
2022/06/07 06:17:55;;;;;;;1.93;1.60;;;;;;;;;;5031274;28;20459;-83
2022/06/07 06:20:22;;;;;;;3.05;1.60;;;20.80;99.90;;;;;;5048823;28;20473;-84
2022/06/07 06:22:48;;;;;;;3.30;1.67;;;21.00;99.90;;;;;;5031393;28;20888;-83
2022/06/07 06:25:14;;;;;;;3.83;1.63;;;20.90;99.90;;;;;;5031092;28;20909;-84
2022/06/07 06:27:41;;;;;;;2.80;1.80;;;21.20;99.90;;;;;;5049127;28;20673;-84
2022/06/07 06:30:08;;;;;;;3.10;1.63;;;21.70;99.90;;;;;;5031749;28;20487;-84
2022/06/07 06:32:34;;;;;;;3.90;2.05;;;21.70;99.90;;;;;;5030260;28;20396;-84
2022/06/07 06:35:00;;;;;;;2.37;1.77;;;21.80;99.90;;;;;;5048949;28;20403;-84
2022/06/07 06:37:27;;;;;;;2.33;1.60;;;21.90;99.90;;;;;;5039853;28;20410;-84
2022/06/07 06:39:53;;;;;;;2.77;1.80;;;22.30;99.90;;;;;;5011481;28;20389;-86
2022/06/07 06:42:21;;;;;;;3.45;2.05;;;;;;;;;;5040745;28;20440;-84
2022/06/07 06:44:47;;;;;;;5.18;1.80;;;23.10;99.90;;;;;;5035135;28;20460;-85
2022/06/07 06:47:13;;;;;;;13.52;2.80;;;23.30;99.90;;;;;;5036661;28;20846;-85
2022/06/07 06:49:41;;;;;;;3.72;2.20;;;23.60;99.90;;;;;;5035335;28;20391;-83
2022/06/07 06:52:07;;;;;;;4.30;2.50;;;23.70;99.70;;;;;;5052820;28;20437;-83
2022/06/07 06:54:34;;;;;;;2.90;1.85;;;23.80;99.90;;;;;;5034746;28;20396;-83
2022/06/07 06:57:00;;;;;;;4.32;2.30;;;24.10;99.90;;;;;;5037840;28;20516;-84
2022/06/07 06:59:26;;;;;;;3.60;1.90;;;24.60;99.90;;;;;;5044039;28;20420;-84
2022/06/07 07:01:51;;;;;;;2.50;2.10;;;25.10;96.80;;;;;;5026743;28;20912;-85
2022/06/07 07:04:19;;;;;;;7.77;2.13;;;24.90;94.70;;;;;;5022832;28;20744;-84
2022/06/07 07:06:47;;;;;;;3.50;1.58;;;24.70;99.90;;;;;;5044093;28;20411;-84
2022/06/07 07:09:14;;;;;;;2.78;1.67;;;24.40;99.90;;;;;;5043379;28;20368;-85
2022/06/07 07:11:48;;;;;;;3.83;1.65;;;24.00;96.90;;;;;;5042632;28;20935;-85
2022/06/07 07:14:14;;;;;;;5.47;1.60;;;24.00;97.10;;;;;;5024499;28;20400;-85
2022/06/07 07:16:44;;;;;;;4.82;1.58;;;24.70;96.20;;;;;;5025757;28;20452;-83
2022/06/07 07:19:11;;;;;;;1.90;1.50;;;24.70;96.70;;;;;;5040328;28;20385;-85
2022/06/07 07:21:41;;;;;;;2.75;1.30;;;25.00;94.90;;;;;;5023366;28;20380;-85
2022/06/07 07:24:11;;;;;;;3.90;1.45;;;24.90;93.80;;;;;;5056219;28;20394;-86
2022/06/07 07:26:38;;;;;;;3.50;1.57;;;25.10;94.40;;;;;;5043708;28;20912;-84
2022/06/07 07:29:05;;;;;;;3.92;1.40;;;25.20;94.80;;;;;;5042601;28;20745;-85
2022/06/07 07:31:34;;;;;;;3.72;1.50;;;25.10;95.50;;;;;;5022342;28;20382;-86
2022/06/07 07:34:02;;;;;;;1.92;1.38;;;25.10;95.40;;;;;;5024872;28;20426;-84
2022/06/07 07:36:28;;;;;;;2.55;1.60;;;25.20;94.20;;;;;;5042730;28;20433;-85
2022/06/07 07:38:54;;;;;;;4.03;1.65;;;25.10;94.10;;;;;;5022483;28;20932;-84
2022/06/07 07:41:29;;;;;;;2.77;1.80;;;24.90;95.80;;;;;;5022355;28;20402;-84
2022/06/07 07:43:56;;;;;;;11.20;2.03;;;24.60;94.70;;;;;;5039397;28;20407;-83
2022/06/07 07:46:24;;;;;;;4.67;1.80;;;24.50;95.70;;;;;;5024386;28;20443;-83
2022/06/07 07:48:50;;;;;;;3.45;1.60;;;24.40;95.10;;;;;;5041752;28;20379;-84
2022/06/07 07:51:36;;;;;;;2.63;1.20;;;24.40;95.10;;;;;;5026193;28;20404;-85
2022/06/07 07:54:04;;;;;;;3.78;1.35;;;24.60;95.50;;;;;;5023637;28;20413;-84
2022/06/07 07:56:30;;;;;;;3.72;1.52;;;24.80;94.60;;;;;;5024355;28;20474;-84
2022/06/07 07:58:58;;;;;;;4.50;1.60;;;24.80;95.40;;;;;;5040844;28;20464;-82
2022/06/07 08:01:28;;;;;;;2.67;1.40;;;24.80;94.90;;;;;;5022802;28;20387;-85
2022/06/07 08:03:57;;;;;;;4.55;1.38;;;24.50;93.10;;;;;;5040647;28;20455;-85
2022/06/07 08:06:25;;;;;;;3.25;1.45;;;24.20;94.90;;;;;;5024735;28;20413;-85
2022/06/07 08:08:53;;;;;;;7.18;1.80;;;23.90;94.80;;;;;;5021497;28;20930;-85
2022/06/07 08:11:21;;;;;;;5.72;1.85;;;23.60;98.60;;;;;;5003389;28;20405;-82
2022/06/07 08:13:47;;;;;;;33.72;4.30;;;23.60;98.30;;;;;;5022163;28;20820;-83
2022/06/07 08:16:13;;;;;;;10.30;2.27;;;23.80;98.40;;;;;;5022719;28;20386;-82
2022/06/07 08:18:41;;;;;;;4.20;1.50;;;24.00;98.10;;;;;;5034521;28;20389;-84
2022/06/07 08:21:13;;;;;;;4.20;1.67;;;24.20;97.50;;;;;;5020837;28;20417;-86
2022/06/07 08:23:40;;;;;;;8.25;1.88;;;24.30;96.00;;;;;;5035658;28;20391;-85
2022/06/07 08:26:07;;;;;;;6.93;1.70;;;24.50;98.10;;;;;;5040821;28;20890;-84
2022/06/07 08:28:34;;;;;;;4.13;1.50;;;24.60;97.30;;;;;;5021011;28;20404;-83
2022/06/07 08:31:00;;;;;;;4.68;2.00;;;24.70;95.80;;;;;;5018299;28;21238;-86
2022/06/07 08:38:58;;;;;;;4.07;1.60;;;24.60;97.50;;;;;;5036054;28;20388;-85
2022/06/07 08:41:31;;;;;;;3.97;1.60;;;24.70;96.20;;;;;;5040836;28;20374;-83
2022/06/07 08:44:08;;;;;;;6.10;2.03;;;24.80;95.90;;;;;;5021606;28;20407;-82
2022/06/07 08:46:36;;;;;;;5.03;1.77;;;24.60;96.00;;;;;;5019927;28;20897;-85
2022/06/07 08:49:04;;;;;;;5.80;1.73;;;24.30;94.50;;;;;;5017839;28;20825;-85
2022/06/07 08:51:43;;;;;;;2.88;1.65;;;24.20;94.80;;;;;;5039923;28;20427;-84
2022/06/07 08:54:20;;;;;;;3.55;1.48;;;24.60;95.70;;;;;;5039248;28;20395;-85
2022/06/07 08:56:47;;;;;;;7.32;2.10;;;25.10;95.60;;;;;;5041424;28;20481;-85
2022/06/07 08:59:17;;;;;;;6.82;2.25;;;25.40;94.60;;;;;;5019878;28;20402;-83
2022/06/07 09:01:47;;;;;;;5.90;1.90;;;25.50;94.10;;;;;;5017358;28;20824;-84
2022/06/07 09:04:22;;;;;;;3.65;1.95;;;25.50;94.50;;;;;;5022194;28;20393;-84
2022/06/07 09:06:51;;;;;;;5.53;1.63;;;25.60;94.60;;;;;;5018288;28;20409;-86
2022/06/07 09:09:20;;;;;;;4.15;1.75;;;26.20;94.90;;;;;;5022192;28;20412;-84
2022/06/07 09:12:10;;;;;;;3.92;1.70;;;26.50;93.40;;;;;;5018503;28;20863;-84
2022/06/07 09:14:49;;;;;;;3.10;1.70;;;26.50;91.90;;;;;;5018353;28;20551;-84
2022/06/07 09:17:19;;;;;;;5.55;1.50;;;26.50;92.30;;;;;;5038811;28;20389;-84
2022/06/07 09:19:47;;;;;;;4.85;1.92;;;26.60;93.00;;;;;;5016791;28;20927;-84
2022/06/07 09:22:26;;;;;;;5.22;1.67;;;26.80;92.20;;;;;;5021918;28;20386;-83
2022/06/07 09:25:13;;;;;;;3.78;1.45;;;26.90;92.20;;;;;;5016654;28;20995;-86
2022/06/07 09:27:38;;;;;;;4.22;1.60;;;26.60;91.90;;;;;;5021729;28;20503;-84
2022/06/07 09:30:16;;;;;;;3.08;1.63;;;26.40;92.10;;;;;;5029812;28;20964;-85
2022/06/07 09:32:45;;;;;;;4.50;1.50;;;26.00;93.10;;;;;;5022335;28;20441;-84
2022/06/07 09:35:32;;;;;;;5.03;1.80;;;;;;;;;;5029325;28;20398;-84
2022/06/07 09:38:21;;;;;;;8.18;1.55;;;26.10;99.90;;;;;;5018751;28;20523;-83
2022/06/07 09:40:54;;;;;;;5.13;1.93;;;26.00;99.00;;;;;;5018137;28;20400;-85
2022/06/07 09:43:26;;;;;;;3.60;1.60;;;26.00;98.90;;;;;;5020053;28;20402;-84
2022/06/07 09:46:06;;;;;;;3.55;1.70;;;25.60;99.90;;;;;;5020230;28;20436;-84
2022/06/07 09:48:40;;;;;;;3.65;1.67;;;25.30;99.90;;;;;;5037753;28;20977;-85
2022/06/07 09:51:22;;;;;;;3.70;1.63;;;25.20;99.90;;;;;;5035219;28;20378;-84
2022/06/07 09:54:03;;;;;;;2.42;1.35;;;25.10;99.90;;;;;;5002189;28;20479;-84
2022/06/07 09:57:15;;;;;;;2.67;1.27;;;25.10;99.90;;;;;;5018446;28;20385;-85
2022/06/07 09:59:46;;;;;;;2.37;1.17;;;25.50;91.40;;;;;;4929052;29;20920;-84
2022/06/07 10:02:22;;;;;;;3.20;1.23;;;25.90;91.20;;;;;;4929662;29;20393;-84
2022/06/07 10:04:56;;;;;;;3.70;1.30;;;26.10;88.70;;;;;;4970014;28;20402;-84
2022/06/07 10:07:31;;;;;;;5.95;1.10;;;26.30;88.60;;;;;;4991679;28;20514;-83
2022/06/07 10:10:03;;;;;;;3.90;1.45;;;26.40;86.30;;;;;;4991560;28;20379;-84
2022/06/07 10:13:01;;;;;;;1.83;1.08;;;25.90;87.60;;;;;;4991392;28;20387;-84
2022/06/07 10:15:41;;;;;;;2.40;0.90;;;25.40;88.20;;;;;;4990775;28;20417;-84
2022/06/07 10:18:27;;;;;;;2.13;0.80;;;25.10;87.30;;;;;;4991800;28;20741;-86
2022/06/07 10:21:19;;;;;;;5.03;1.10;;;24.90;85.70;;;;;;5008622;28;20382;-83
2022/06/07 10:24:03;;;;;;;1.98;0.98;;;25.00;85.70;;;;;;4970847;28;20379;-84
2022/06/07 10:26:40;;;;;;;3.13;1.10;;;25.30;83.10;;;;;;5008951;28;20410;-84
2022/06/07 10:29:57;;;;;;;2.00;0.88;;;25.30;85.00;;;;;;4991166;28;20388;-84
2022/06/07 10:32:33;;;;;;;2.17;0.93;;;;;;;;;;4974230;28;20449;-86
2022/06/07 10:35:15;;;;;;;2.37;0.90;;;26.40;79.80;;;;;;4991727;28;20753;-84
2022/06/07 10:37:53;;;;;;;3.30;1.13;;;26.70;82.70;;;;;;4991585;28;20413;-84
2022/06/07 10:40:43;;;;;;;4.50;1.03;;;26.60;80.00;;;;;;4990752;28;20991;-84
2022/06/07 10:43:18;;;;;;;3.97;1.10;;;26.30;80.40;;;;;;4991672;28;20869;-83
2022/06/07 10:45:45;;;;;;;4.88;1.13;;;26.00;79.00;;;;;;5008448;28;20402;-84
2022/06/07 10:48:14;;;;;;;3.67;1.20;;;25.50;80.00;;;;;;5009303;28;20818;-84
2022/06/07 10:50:55;;;;;;;4.15;1.10;;;25.10;79.60;;;;;;4990733;28;20792;-84
2022/06/07 10:53:43;;;;;;;3.58;1.20;;;24.70;84.10;;;;;;4991578;28;20387;-85
2022/06/07 10:56:28;;;;;;;3.33;1.10;;;25.20;84.20;;;;;;4992447;28;20526;-83
2022/06/07 10:58:57;;;;;;;2.38;0.98;;;25.50;81.90;;;;;;4991454;28;20517;-85
2022/06/07 11:01:35;;;;;;;1.67;0.85;;;25.80;81.70;;;;;;4990430;28;20395;-84
2022/06/07 11:04:04;;;;;;;4.35;1.00;;;25.70;81.40;;;;;;4991694;28;20865;-84
2022/06/07 11:09:41;;;;;;;2.58;1.10;;;25.80;79.40;;;;;;5009131;28;20899;-83
2022/06/07 11:12:27;;;;;;;3.75;1.08;;;25.70;78.40;;;;;;5036977;28;20395;-83
2022/06/07 11:15:18;;;;;;;5.63;0.90;;;25.50;79.20;;;;;;5017082;28;20397;-83
2022/06/07 11:17:50;;;;;;;4.05;1.20;;;25.00;80.40;;;;;;5001159;28;20376;-84
2022/06/07 11:20:24;;;;;;;4.82;1.20;;;25.10;82.30;;;;;;5044093;28;20865;-84
2022/06/07 11:23:13;;;;;;;5.20;1.40;;;25.30;82.60;;;;;;5014257;28;20391;-85
2022/06/07 11:25:43;;;;;;;3.22;1.10;;;25.90;80.90;;;;;;5037087;28;20398;-85
2022/06/07 11:28:26;;;;;;;3.65;1.10;;;26.20;78.00;;;;;;5020509;28;21185;-86
2022/06/07 11:30:53;;;;;;;1.70;0.80;;;26.50;77.90;;;;;;5022317;28;20863;-83
2022/06/07 11:33:58;;;;;;;3.20;1.00;;;26.70;76.00;;;;;;5021545;28;20398;-84
2022/06/07 11:36:35;;;;;;;2.53;0.90;;;26.70;73.80;;;;;;5023715;28;20399;-85
2022/06/07 11:39:04;;;;;;;1.87;0.90;;;26.70;73.80;;;;;;5021643;28;20397;-84
2022/06/07 11:41:41;;;;;;;4.07;1.00;;;26.60;77.70;;;;;;5023266;28;20434;-84
2022/06/07 11:44:10;;;;;;;2.58;1.17;;;26.40;76.40;;;;;;5040830;28;20415;-83
2022/06/07 11:46:40;;;;;;;3.10;1.00;;;26.10;77.40;;;;;;5019075;28;20482;-86
2022/06/07 11:49:27;;;;;;;1.77;1.00;;;26.10;78.00;;;;;;5028132;28;20381;-84
2022/06/07 11:51:57;;;;;;;1.45;0.80;;;26.00;77.10;;;;;;5032934;28;20449;-84
2022/06/07 11:54:45;;;;;;;4.30;1.15;;;25.80;78.40;;;;;;5033643;28;20386;-87
2022/06/07 11:57:48;;;;;;;2.42;0.82;;;26.00;78.00;;;;;;5018301;28;20781;-86
2022/06/07 12:00:21;;;;;;;1.47;0.80;;;26.30;78.90;;;;;;4997295;28;20386;-84
2022/06/07 12:02:57;;;;;;;1.88;0.73;;;26.80;76.70;;;;;;5024627;28;20891;-85
2022/06/07 12:05:47;;;;;;;2.13;0.90;;;27.20;75.30;;;;;;5020994;28;20379;-88
2022/06/07 12:08:13;;;;;;;2.90;0.70;;;27.50;75.40;;;;;;5040308;28;20832;-85
2022/06/07 12:10:42;;;;;;;0.97;0.70;;;27.80;75.50;;;;;;5046191;28;20455;-86
2022/06/07 12:13:13;;;;;;;3.33;0.85;;;27.80;69.90;;;;;;5041482;28;20399;-83
2022/06/07 12:15:52;;;;;;;2.80;0.90;;;27.60;73.40;;;;;;5030831;28;20452;-85
2022/06/07 12:18:20;;;;;;;5.63;1.00;;;27.30;73.00;;;;;;5022547;28;20748;-85
2022/06/07 12:20:54;;;;;;;4.70;1.05;;;;;;;;;;5024618;28;20387;-86
2022/06/07 12:23:20;;;;;;;7.40;1.57;;;27.00;73.90;;;;;;5017979;28;20940;-85
2022/06/07 12:25:57;;;;;;;2.17;0.90;;;27.20;74.30;;;;;;5010803;28;20385;-84
2022/06/07 12:28:26;;;;;;;3.35;1.08;;;27.10;73.50;;;;;;5022887;28;20532;-84
2022/06/07 12:30:52;;;;;;;2.50;0.80;;;27.10;73.80;;;;;;5018260;28;20456;-84
2022/06/07 12:33:32;;;;;;;3.13;1.00;;;27.10;72.70;;;;;;5011745;28;20875;-83
2022/06/07 12:35:59;;;;;;;2.13;0.90;;;26.80;71.80;;;;;;5009751;28;20457;-84
2022/06/07 12:38:26;;;;;;;2.72;0.95;;;26.60;73.30;;;;;;5001531;28;20380;-85
2022/06/07 12:40:54;;;;;;;3.08;0.90;;;26.30;73.70;;;;;;5005849;28;20370;-85
2022/06/07 12:43:27;;;;;;;2.30;1.00;;;26.20;73.30;;;;;;5020282;28;20434;-85
2022/06/07 12:46:20;;;;;;;2.08;0.90;;;26.10;73.00;;;;;;5019198;28;20407;-85
2022/06/07 12:48:47;;;;;;;4.25;1.30;;;26.30;74.30;;;;;;5028490;28;20438;-84
2022/06/07 12:51:21;;;;;;;2.72;0.75;;;26.60;74.50;;;;;;5033023;28;20395;-83
2022/06/07 12:53:49;;;;;;;1.70;1.07;;;26.90;72.60;;;;;;5050365;28;20376;-84
2022/06/07 12:56:18;;;;;;;1.97;0.67;;;26.90;72.40;;;;;;5050313;28;20861;-84
2022/06/07 12:58:50;;;;;;;2.20;0.73;;;26.80;71.60;;;;;;5032448;28;20458;-84
2022/06/07 13:01:25;;;;;;;1.60;0.87;;;26.90;71.80;;;;;;5031530;28;20901;-84
2022/06/07 13:03:56;;;;;;;3.78;0.95;;;27.00;71.80;;;;;;5040422;28;20563;-84
2022/06/07 13:06:23;;;;;;;2.00;0.88;;;27.10;72.30;;;;;;5020853;28;20392;-85
2022/06/07 13:09:03;;;;;;;2.47;0.90;;;27.10;71.00;;;;;;5030354;28;20477;-84
2022/06/07 13:11:33;;;;;;;2.88;0.80;;;27.10;70.90;;;;;;5020733;28;20875;-86
2022/06/07 13:14:00;;;;;;;3.30;0.80;;;27.00;71.60;;;;;;5036349;28;20385;-85
2022/06/07 13:16:38;;;;;;;2.40;0.75;;;27.00;71.10;;;;;;5037797;28;20403;-85
2022/06/07 13:19:26;;;;;;;1.40;0.85;;;27.20;70.50;;;;;;5035210;28;20418;-86
2022/06/07 13:22:02;;;;;;;1.73;0.90;;;27.30;69.30;;;;;;5031819;28;20407;-85
2022/06/07 13:25:03;;;;;;;2.65;1.00;;;27.20;72.10;;;;;;5029942;28;20459;-85